createdAt,value
2019-04-25T00:00:51.452Z,100001.32
2019-04-25T00:02:58.790Z,99991.58
2019-04-25T00:05:08.558Z,100005.75
2019-04-25T00:07:15.262Z,99993.33
2019-04-25T00:09:23.596Z,99992.01
2019-04-25T00:11:31.254Z,99988.02
2019-04-25T00:13:38.317Z,99996.41
2019-04-25T00:15:46.295Z,99992.43
2019-04-25T00:17:53.812Z,99991.09
2019-04-25T00:20:01.646Z,99991.09
2019-04-25T00:22:11.759Z,99990.21
2019-04-25T00:24:23.852Z,99993.75
2019-04-25T00:26:38.352Z,99988.88
2019-04-25T00:28:46.729Z,99986.23
2019-04-25T00:30:53.733Z,99983.13
2019-04-25T00:33:01.922Z,99993.76
2019-04-25T00:35:08.854Z,99983.13
2019-04-25T00:37:16.029Z,99982.25
2019-04-25T00:39:23.052Z,99979.16
2019-04-25T00:41:29.806Z,99975.61
2019-04-25T00:43:36.484Z,99971.18
2019-04-25T00:45:44.471Z,99972.95
2019-04-25T00:47:52.830Z,99976.50
2019-04-25T00:49:59.779Z,99976.94
2019-04-25T00:52:06.577Z,99976.94
2019-04-25T00:54:13.250Z,99976.05
2019-04-25T00:56:19.990Z,99967.18
2019-04-25T00:58:28.352Z,99976.03
2019-04-25T01:00:45.671Z,99980.05
2019-04-25T01:02:56.731Z,99983.75
2019-04-25T01:05:03.691Z,99974.55
2019-04-25T01:07:10.433Z,99969.33
2019-04-25T01:09:22.178Z,99966.70
2019-04-25T01:11:29.247Z,99968.93
2019-04-25T01:13:35.916Z,99966.77
2019-04-25T01:15:42.699Z,99968.54
2019-04-25T01:17:51.235Z,99972.08
2019-04-25T01:19:58.144Z,99972.52
2019-04-25T01:22:05.224Z,99969.41
2019-04-25T01:24:11.997Z,99973.35
2019-04-25T01:26:18.737Z,99974.23
2019-04-25T01:28:25.577Z,99975.11
2019-04-25T01:30:33.961Z,99976.88
2019-04-25T01:32:40.852Z,99971.56
2019-04-25T01:34:49.150Z,99977.79
2019-04-25T01:37:04.187Z,99976.45
2019-04-25T01:39:19.908Z,99970.27
2019-04-25T01:41:34.301Z,99972.48
2019-04-25T01:43:40.761Z,99967.17
2019-04-25T01:45:48.225Z,99962.31
2019-04-25T01:47:55.413Z,99963.19
2019-04-25T01:50:03.965Z,99962.30
2019-04-25T01:52:10.687Z,99959.61
2019-04-25T01:54:17.438Z,99958.28
2019-04-25T01:56:24.858Z,99957.84
2019-04-25T01:58:31.651Z,99959.61
2019-04-25T02:00:44.941Z,99960.94
2019-04-25T02:02:54.552Z,99960.05
2019-04-25T02:05:00.574Z,99960.94
2019-04-25T02:07:08.309Z,99960.97
2019-04-25T02:09:15.772Z,99967.12
2019-04-25T02:11:39.230Z,99962.26
2019-04-25T02:13:46.028Z,99966.67
2019-04-25T02:15:54.758Z,99962.70
2019-04-25T02:18:01.830Z,99961.36
2019-04-25T02:20:09.189Z,99964.91
2019-04-25T02:22:15.893Z,99958.33
2019-04-25T02:24:23.695Z,99959.19
2019-04-25T02:26:30.573Z,99961.41
2019-04-25T02:28:37.333Z,99953.06
2019-04-25T02:30:45.329Z,99958.38
2019-04-25T02:32:56.053Z,99954.02
2019-04-25T02:35:03.400Z,99952.73
2019-04-25T02:37:09.707Z,99948.36
2019-04-25T02:39:18.895Z,99947.03
2019-04-25T02:41:25.717Z,99946.19
2019-04-25T02:43:34.890Z,99943.98
2019-04-25T02:45:48.312Z,99940.03
2019-04-25T02:48:10.065Z,99940.03
2019-04-25T02:50:24.480Z,99942.69
2019-04-25T02:52:34.262Z,99937.38
2019-04-25T02:54:41.056Z,99941.36
2019-04-25T02:56:47.798Z,99935.61
2019-04-25T02:58:55.760Z,99939.11
2019-04-25T03:01:16.542Z,99942.65
2019-04-25T03:03:14.918Z,99931.60
2019-04-25T03:05:21.675Z,99930.68
2019-04-25T03:07:28.362Z,99928.91
2019-04-25T03:09:35.425Z,99933.33
2019-04-25T03:11:42.208Z,99923.61
2019-04-25T03:13:48.978Z,99939.07
2019-04-25T03:15:55.913Z,99930.64
2019-04-25T03:18:05.758Z,99940.36
2019-04-25T03:20:24.399Z,99934.61
2019-04-25T03:22:34.412Z,99936.81
2019-04-25T03:24:41.331Z,99939.47
2019-04-25T03:26:48.096Z,99934.17
2019-04-25T03:28:55.777Z,99933.33
2019-04-25T03:31:07.338Z,99936.86
2019-04-25T03:33:18.113Z,99935.53
2019-04-25T03:35:19.484Z,99928.47
2019-04-25T03:37:26.141Z,99936.86
2019-04-25T03:39:33.616Z,99923.61
2019-04-25T03:41:40.351Z,99931.13
2019-04-25T03:43:47.034Z,99939.08
2019-04-25T03:45:54.900Z,99939.08
2019-04-25T03:48:01.964Z,99942.17
2019-04-25T03:50:08.804Z,99938.64
2019-04-25T03:52:16.711Z,99940.44
2019-04-25T03:54:24.191Z,99937.79
2019-04-25T03:56:30.869Z,99940.87
2019-04-25T03:58:37.652Z,99939.56
2019-04-25T04:00:46.423Z,99939.55
2019-04-25T04:02:53.854Z,99940.41
2019-04-25T04:05:02.260Z,99940.40
2019-04-25T04:07:11.163Z,99939.96
2019-04-25T04:09:18.570Z,99941.73
2019-04-25T04:11:25.334Z,99942.61
2019-04-25T04:13:34.256Z,99941.29
2019-04-25T04:15:43.334Z,99930.69
2019-04-25T04:17:53.514Z,99939.55
2019-04-25T04:20:00.962Z,99939.11
2019-04-25T04:22:09.384Z,99941.73
2019-04-25T04:24:17.734Z,99953.22
2019-04-25T04:26:24.488Z,99945.27
2019-04-25T04:28:31.436Z,99943.94
2019-04-25T04:30:38.319Z,99943.49
2019-04-25T04:32:45.455Z,99944.38
2019-04-25T04:34:53.716Z,99941.28
2019-04-25T04:37:00.765Z,99945.66
2019-04-25T04:39:09.078Z,99946.55
2019-04-25T04:41:16.474Z,99945.22
2019-04-25T04:43:23.907Z,99951.41
2019-04-25T04:45:31.674Z,99949.64
2019-04-25T04:47:38.919Z,99950.97
2019-04-25T04:49:45.635Z,99950.97
2019-04-25T04:51:52.294Z,99942.13
2019-04-25T04:53:59.052Z,99953.21
2019-04-25T04:56:05.771Z,99949.68
2019-04-25T04:58:13.099Z,99951.89
2019-04-25T05:00:21.636Z,99951.84
2019-04-25T05:02:43.345Z,99950.08
2019-04-25T05:04:58.867Z,99948.27
2019-04-25T05:07:11.016Z,99948.21
2019-04-25T05:09:19.828Z,99942.44
2019-04-25T05:11:26.561Z,99933.15
2019-04-25T05:13:34.254Z,99941.94
2019-04-25T05:15:42.979Z,99942.84
2019-04-25T05:17:50.899Z,99934.80
2019-04-25T05:19:57.645Z,99925.90
2019-04-25T05:22:04.340Z,99932.05
2019-04-25T05:24:11.029Z,99925.36
2019-04-25T05:26:17.809Z,99931.52
2019-04-25T05:28:24.708Z,99929.34
2019-04-25T05:30:33.663Z,99934.55
2019-04-25T05:32:40.685Z,99938.45
2019-04-25T05:34:49.347Z,99936.52
2019-04-25T05:36:55.804Z,99927.53
2019-04-25T05:39:04.025Z,99924.00
2019-04-25T05:41:14.790Z,99925.57
2019-04-25T05:43:23.678Z,99926.70
2019-04-25T05:45:31.781Z,99921.76
2019-04-25T05:47:38.476Z,99923.56
2019-04-25T05:49:45.234Z,99920.83
2019-04-25T05:51:51.968Z,99923.91
2019-04-25T05:53:58.739Z,99921.53
2019-04-25T05:56:05.417Z,99915.57
2019-04-25T05:58:13.542Z,99908.33
2019-04-25T06:00:22.735Z,99913.03
2019-04-25T06:02:30.253Z,99907.33
2019-04-25T06:04:36.926Z,99910.88
2019-04-25T06:06:44.626Z,99912.89
2019-04-25T06:08:54.219Z,99912.54
2019-04-25T06:11:03.950Z,99912.05
2019-04-25T06:13:13.893Z,99903.77
2019-04-25T06:15:24.037Z,99905.25
2019-04-25T06:17:45.731Z,99905.23
2019-04-25T06:19:54.080Z,99907.91
2019-04-25T06:22:03.222Z,99918.70
2019-04-25T06:24:14.657Z,99913.73
2019-04-25T06:26:32.714Z,99918.70
2019-04-25T06:28:34.561Z,99914.16
2019-04-25T06:30:41.105Z,99916.83
2019-04-25T06:32:47.799Z,99930.84
2019-04-25T06:34:56.756Z,99924.50
2019-04-25T06:37:04.731Z,99930.11
2019-04-25T06:39:11.895Z,99925.42
2019-04-25T06:41:18.633Z,99937.02
2019-04-25T06:43:25.800Z,99936.65
2019-04-25T06:45:51.548Z,99934.64
2019-04-25T06:48:15.895Z,99930.23
2019-04-25T06:50:23.092Z,99926.13
2019-04-25T06:52:31.979Z,99922.16
2019-04-25T06:54:40.125Z,99917.80
2019-04-25T06:56:46.884Z,99923.64
2019-04-25T06:58:54.897Z,99915.60
2019-04-25T07:01:03.284Z,99916.81
2019-04-25T07:03:10.084Z,99909.42
2019-04-25T07:05:26.572Z,99916.42
2019-04-25T07:07:27.738Z,99907.37
2019-04-25T07:09:36.073Z,99910.54
2019-04-25T07:11:44.034Z,99911.11
2019-04-25T07:13:50.934Z,99912.39
2019-04-25T07:15:57.674Z,99908.59
2019-04-25T07:18:04.374Z,99903.64
2019-04-25T07:20:13.884Z,99911.04
2019-04-25T07:22:20.559Z,99907.64
2019-04-25T07:24:27.402Z,99912.23
2019-04-25T07:26:39.534Z,99907.84
2019-04-25T07:28:51.902Z,99909.22
2019-04-25T07:31:18.786Z,99899.02
2019-04-25T07:33:29.919Z,99905.52
2019-04-25T07:35:36.664Z,99906.34
2019-04-25T07:37:44.125Z,99911.14
2019-04-25T07:39:51.167Z,99905.40
2019-04-25T07:41:57.895Z,99907.25
2019-04-25T07:44:04.787Z,99907.56
2019-04-25T07:46:13.370Z,99918.54
2019-04-25T07:48:22.666Z,99911.30
2019-04-25T07:50:28.557Z,99917.81
2019-04-25T07:52:35.770Z,99905.30
2019-04-25T07:54:43.998Z,99922.55
2019-04-25T07:56:51.110Z,99922.53
2019-04-25T07:58:57.641Z,99920.73
2019-04-25T08:01:05.585Z,99915.31
2019-04-25T08:07:04.174Z,99919.05
2019-04-25T08:12:03.415Z,99901.14
2019-04-25T08:14:19.327Z,99915.54
2019-04-25T08:16:31.089Z,99921.06
2019-04-25T08:18:40.140Z,99918.27
2019-04-25T08:20:47.634Z,99920.31
2019-04-25T08:22:58.567Z,99912.20
2019-04-25T08:25:03.675Z,99906.70
2019-04-25T08:27:10.190Z,99909.61
2019-04-25T08:29:16.878Z,99902.93
2019-04-25T08:31:23.614Z,99902.06
2019-04-25T08:33:32.693Z,99899.22
2019-04-25T08:35:40.117Z,99900.42
2019-04-25T08:37:46.871Z,99906.70
2019-04-25T08:39:53.941Z,99895.84
2019-04-25T08:42:00.767Z,99903.27
2019-04-25T08:44:08.342Z,99915.53
2019-04-25T08:46:15.107Z,99907.25
2019-04-25T08:48:23.476Z,99900.23
2019-04-25T08:50:38.295Z,99905.50
2019-04-25T08:52:44.308Z,99909.27
2019-04-25T08:54:54.284Z,99899.35
2019-04-25T08:57:04.289Z,99911.02
2019-04-25T08:59:37.295Z,99902.86
2019-04-25T09:01:53.515Z,99892.79
2019-04-25T09:04:06.939Z,99889.65
2019-04-25T09:06:14.429Z,99901.16
2019-04-25T09:08:23.985Z,99902.13
2019-04-25T09:10:30.767Z,99896.67
2019-04-25T09:12:37.814Z,99897.57
2019-04-25T09:14:45.080Z,99895.26
2019-04-25T09:16:53.475Z,99883.96
2019-04-25T09:19:00.260Z,99887.23
2019-04-25T09:21:06.941Z,99875.73
2019-04-25T09:23:13.879Z,99880.88
2019-04-25T09:25:20.727Z,99890.94
2019-04-25T09:27:27.392Z,99882.88
2019-04-25T09:29:35.268Z,99881.05
2019-04-25T09:31:45.138Z,99876.12
2019-04-25T09:33:54.218Z,99873.64
2019-04-25T09:36:01.205Z,99875.83
2019-04-25T09:38:07.971Z,99881.59
2019-04-25T09:40:15.910Z,99876.12
2019-04-25T09:42:23.791Z,99883.28
2019-04-25T09:44:37.074Z,99867.45
2019-04-25T09:46:46.515Z,99873.71
2019-04-25T09:48:57.594Z,99869.53
2019-04-25T09:51:08.912Z,99865.02
2019-04-25T09:53:23.612Z,99862.63
2019-04-25T09:55:25.018Z,99861.35
2019-04-25T09:57:43.366Z,99854.10
2019-04-25T09:59:50.962Z,99856.15
2019-04-25T10:01:57.700Z,99850.01
2019-04-25T10:04:04.470Z,99846.55
2019-04-25T10:06:11.456Z,99850.21
2019-04-25T10:08:18.223Z,99847.59
2019-04-25T10:10:26.031Z,99849.06
2019-04-25T10:12:34.081Z,99858.99
2019-04-25T10:15:14.130Z,99858.15
2019-04-25T10:17:21.231Z,99854.81
2019-04-25T10:19:27.948Z,99843.88
2019-04-25T10:21:34.698Z,99854.92
2019-04-25T10:23:44.096Z,99852.98
2019-04-25T10:25:53.750Z,99836.35
2019-04-25T10:28:00.692Z,99860.16
2019-04-25T10:30:16.847Z,99854.77
2019-04-25T10:32:17.569Z,99852.00
2019-04-25T10:34:24.264Z,99852.47
2019-04-25T10:36:31.255Z,99859.55
2019-04-25T10:38:37.962Z,99855.02
2019-04-25T10:40:47.606Z,99855.86
2019-04-25T10:42:54.450Z,99843.28
2019-04-25T10:45:01.201Z,99849.07
2019-04-25T10:47:08.992Z,99848.31
2019-04-25T10:49:15.792Z,99846.86
2019-04-25T10:51:23.950Z,99842.16
2019-04-25T10:53:30.975Z,99836.43
2019-04-25T10:55:37.759Z,99840.25
2019-04-25T10:57:46.546Z,99834.45
2019-04-25T11:00:05.627Z,99831.76
2019-04-25T11:02:01.857Z,99833.36
2019-04-25T11:04:10.588Z,99826.23
2019-04-25T11:06:18.350Z,99828.98
2019-04-25T11:08:25.113Z,99817.39
2019-04-25T11:10:31.846Z,99816.68
2019-04-25T11:12:38.606Z,99815.83
2019-04-25T11:14:46.426Z,99816.69
2019-04-25T11:16:55.225Z,99806.77
2019-04-25T11:19:02.222Z,99816.45
2019-04-25T11:21:08.918Z,99827.31
2019-04-25T11:23:16.159Z,99818.50
2019-04-25T11:25:24.077Z,99824.09
2019-04-25T11:27:31.053Z,99818.36
2019-04-25T11:29:37.723Z,99811.34
2019-04-25T11:31:47.329Z,99816.11
2019-04-25T11:33:54.551Z,99818.34
2019-04-25T11:36:01.389Z,99813.10
2019-04-25T11:38:09.700Z,99812.87
2019-04-25T11:40:21.041Z,99831.22
2019-04-25T11:42:28.176Z,99817.95
2019-04-25T11:44:35.104Z,99819.56
2019-04-25T11:46:43.455Z,99812.33
2019-04-25T11:48:50.481Z,99820.77
2019-04-25T11:50:57.084Z,99817.83
2019-04-25T11:53:04.819Z,99808.81
2019-04-25T11:55:12.376Z,99814.12
2019-04-25T11:57:19.101Z,99812.83
2019-04-25T11:59:25.944Z,99819.77
2019-04-25T12:01:33.606Z,99818.84
2019-04-25T12:03:40.594Z,99806.12
2019-04-25T12:05:48.410Z,99805.09
2019-04-25T12:07:55.857Z,99811.34
2019-04-25T12:10:03.739Z,99813.11
2019-04-25T12:12:14.629Z,99813.75
2019-04-25T12:14:21.582Z,99806.27
2019-04-25T12:16:28.251Z,99804.53
2019-04-25T12:18:35.459Z,99818.92
2019-04-25T12:20:44.076Z,99806.91
2019-04-25T12:22:58.079Z,99800.01
2019-04-25T12:24:59.767Z,99801.59
2019-04-25T12:27:06.521Z,99793.42
2019-04-25T12:29:14.368Z,99803.25
2019-04-25T12:31:21.276Z,99793.31
2019-04-25T12:33:28.029Z,99784.83
2019-04-25T12:35:34.811Z,99793.97
2019-04-25T12:37:41.596Z,99791.09
2019-04-25T12:39:48.542Z,99790.14
2019-04-25T12:41:56.060Z,99782.83
2019-04-25T12:44:08.856Z,99782.53
2019-04-25T12:46:17.258Z,99774.63
2019-04-25T12:48:23.924Z,99774.41
2019-04-25T12:50:30.854Z,99773.09
2019-04-25T12:52:37.533Z,99777.34
2019-04-25T12:54:44.312Z,99774.91
2019-04-25T12:56:52.199Z,99766.13
2019-04-25T12:59:00.473Z,99774.33
2019-04-25T13:01:07.994Z,99767.23
2019-04-25T13:03:14.763Z,99764.69
2019-04-25T13:05:21.596Z,99764.27
2019-04-25T13:07:28.341Z,99771.13
2019-04-25T13:09:35.129Z,99764.36
2019-04-25T13:11:43.366Z,99759.48
2019-04-25T13:13:51.485Z,99758.66
2019-04-25T13:15:58.472Z,99753.23
2019-04-25T13:18:05.310Z,99748.21
2019-04-25T13:20:12.249Z,99751.47
2019-04-25T13:22:19.878Z,99751.22
2019-04-25T13:24:26.485Z,99758.09
2019-04-25T13:26:34.811Z,99762.66
2019-04-25T13:28:48.912Z,99761.79
2019-04-25T13:31:14.891Z,99760.01
2019-04-25T13:33:26.241Z,99760.12
2019-04-25T13:35:34.583Z,99749.13
2019-04-25T13:37:41.247Z,99750.95
2019-04-25T13:39:47.914Z,99750.45
2019-04-25T13:41:57.309Z,99744.03
2019-04-25T13:44:05.124Z,99744.59
2019-04-25T13:46:15.825Z,99742.17
2019-04-25T13:48:20.438Z,99748.87
2019-04-25T13:50:27.619Z,99740.73
2019-04-25T13:52:36.298Z,99739.13
2019-04-25T13:54:43.632Z,99737.06
2019-04-25T13:56:53.275Z,99738.18
2019-04-25T13:59:01.222Z,99736.58
2019-04-25T14:01:13.093Z,99739.26
2019-04-25T14:03:19.079Z,99739.11
2019-04-25T14:05:26.110Z,99748.63
2019-04-25T14:07:32.814Z,99745.50
2019-04-25T14:09:39.498Z,99738.77
2019-04-25T14:11:47.603Z,99735.81
2019-04-25T14:13:54.394Z,99740.81
2019-04-25T14:16:08.449Z,99732.75
2019-04-25T14:18:16.949Z,99734.17
2019-04-25T14:20:26.399Z,99732.46
2019-04-25T14:22:33.284Z,99729.22
2019-04-25T14:24:41.471Z,99723.13
2019-04-25T14:26:48.255Z,99726.41
2019-04-25T14:28:56.465Z,99728.66
2019-04-25T14:31:03.296Z,99729.73
2019-04-25T14:33:09.984Z,99724.57
2019-04-25T14:35:16.688Z,99722.91
2019-04-25T14:37:26.321Z,99730.94
2019-04-25T14:39:31.888Z,99733.87
2019-04-25T14:41:38.645Z,99722.12
2019-04-25T14:43:46.528Z,99728.90
2019-04-25T14:45:56.022Z,99728.64
2019-04-25T14:48:01.139Z,99728.47
2019-04-25T14:50:08.924Z,99725.38
2019-04-25T14:52:15.625Z,99726.81
2019-04-25T14:54:26.356Z,99722.65
2019-04-25T14:56:32.836Z,99731.65
2019-04-25T14:58:41.355Z,99733.95
2019-04-25T15:00:49.778Z,99731.25
2019-04-25T15:02:57.511Z,99732.78
2019-04-25T15:05:05.381Z,99737.89
2019-04-25T15:07:12.133Z,99734.87
2019-04-25T15:09:18.888Z,99738.89
2019-04-25T15:11:25.643Z,99730.12
2019-04-25T15:13:32.484Z,99723.28
2019-04-25T15:15:39.145Z,99728.33
2019-04-25T15:17:46.892Z,99723.45
2019-04-25T15:19:53.697Z,99731.31
2019-04-25T15:22:00.367Z,99722.02
2019-04-25T15:24:09.897Z,99723.84
2019-04-25T15:26:16.645Z,99722.50
2019-04-25T15:28:24.359Z,99722.02
2019-04-25T15:30:33.792Z,99720.35
2019-04-25T15:32:40.528Z,99721.66
2019-04-25T15:34:49.864Z,99719.44
2019-04-25T15:37:00.970Z,99717.45
2019-04-25T15:39:19.658Z,99720.23
2019-04-25T15:41:33.693Z,99721.02
2019-04-25T15:43:42.353Z,99721.70
2019-04-25T15:45:56.305Z,99722.58
2019-04-25T15:48:03.224Z,99718.24
2019-04-25T15:50:10.539Z,99718.05
2019-04-25T15:52:17.203Z,99718.24
2019-04-25T15:54:23.895Z,99718.64
2019-04-25T15:56:30.594Z,99716.30
2019-04-25T15:58:37.414Z,99720.07
2019-04-25T16:00:44.146Z,99722.06
2019-04-25T16:02:50.836Z,99715.79
2019-04-25T16:04:57.572Z,99715.86
2019-04-25T16:07:05.608Z,99712.52
2019-04-25T16:09:12.473Z,99715.55
2019-04-25T16:11:21.289Z,99712.21
2019-04-25T16:13:28.257Z,99714.91
2019-04-25T16:15:36.187Z,99718.28
2019-04-25T16:17:43.713Z,99716.11
2019-04-25T16:19:50.410Z,99720.83
2019-04-25T16:21:57.190Z,99718.80
2019-04-25T16:24:06.506Z,99715.30
2019-04-25T16:26:13.549Z,99716.56
2019-04-25T16:28:23.026Z,99713.39
2019-04-25T16:30:32.248Z,99717.29
2019-04-25T16:32:41.463Z,99715.23
2019-04-25T16:34:48.334Z,99716.26
2019-04-25T16:36:55.068Z,99710.31
2019-04-25T16:39:04.301Z,99710.64
2019-04-25T16:41:17.424Z,99709.61
2019-04-25T16:43:25.842Z,99702.86
2019-04-25T16:45:33.958Z,99707.61
2019-04-25T16:47:41.887Z,99707.44
2019-04-25T16:49:48.923Z,99704.33
2019-04-25T16:51:55.749Z,99697.52
2019-04-25T16:54:02.454Z,99704.56
2019-04-25T16:56:13.721Z,99700.92
2019-04-25T16:58:23.353Z,99707.02
2019-04-25T17:00:34.793Z,99705.66
2019-04-25T17:02:42.386Z,99703.33
2019-04-25T17:04:49.230Z,99705.00
2019-04-25T17:06:55.935Z,99708.13
2019-04-25T17:09:02.674Z,99703.53
2019-04-25T17:11:12.056Z,99709.89
2019-04-25T17:13:19.622Z,99702.56
2019-04-25T17:15:30.618Z,99711.84
2019-04-25T17:17:37.859Z,99708.95
2019-04-25T17:20:04.200Z,99707.04
2019-04-25T17:22:10.951Z,99709.60
2019-04-25T17:24:17.642Z,99712.20
2019-04-25T17:26:24.383Z,99707.56
2019-04-25T17:28:32.724Z,99710.55
2019-04-25T17:30:42.096Z,99714.52
2019-04-25T17:32:53.799Z,99711.19
2019-04-25T17:34:58.699Z,99706.48
2019-04-25T17:37:17.450Z,99711.66
2019-04-25T17:39:37.512Z,99707.00
2019-04-25T17:41:45.334Z,99714.86
2019-04-25T17:43:53.298Z,99708.50
2019-04-25T17:46:00.065Z,99714.54
2019-04-25T17:48:06.720Z,99713.02
2019-04-25T17:50:13.488Z,99717.71
2019-04-25T17:52:21.425Z,99717.90
2019-04-25T17:54:28.160Z,99715.03
2019-04-25T17:56:36.860Z,99718.84
2019-04-25T17:58:43.360Z,99721.75
2019-04-25T18:00:50.295Z,99719.37
2019-04-25T18:03:00.181Z,99717.84
2019-04-25T18:05:08.865Z,99725.09
2019-04-25T18:07:15.544Z,99723.86
2019-04-25T18:09:22.599Z,99733.33
2019-04-25T18:11:30.775Z,99730.30
2019-04-25T18:13:38.883Z,99728.57
2019-04-25T18:15:53.830Z,99731.88
2019-04-25T18:18:02.165Z,99737.38
2019-04-25T18:20:14.920Z,99738.38
2019-04-25T18:22:39.270Z,99731.30
2019-04-25T18:24:45.727Z,99731.52
2019-04-25T18:26:56.972Z,99736.66
2019-04-25T18:29:05.276Z,99741.69
2019-04-25T18:31:12.053Z,99739.61
2019-04-25T18:33:19.310Z,99733.48
2019-04-25T18:35:27.648Z,99738.50
2019-04-25T18:37:37.313Z,99739.96
2019-04-25T18:39:44.131Z,99741.51
2019-04-25T18:42:10.960Z,99741.63
2019-04-25T18:44:18.244Z,99736.83
2019-04-25T18:46:30.901Z,99740.97
2019-04-25T18:48:38.340Z,99737.94
2019-04-25T18:50:45.369Z,99737.20
2019-04-25T18:52:53.686Z,99739.07
2019-04-25T18:55:08.083Z,99737.89
2019-04-25T18:57:25.579Z,99737.62
2019-04-25T18:59:38.691Z,99733.30
2019-04-25T19:02:05.190Z,99737.44
2019-04-25T19:04:11.678Z,99739.88
2019-04-25T19:06:22.867Z,99739.17
2019-04-25T19:08:29.619Z,99740.62
2019-04-25T19:10:36.311Z,99740.73
2019-04-25T19:12:43.686Z,99740.87
2019-04-25T19:14:50.428Z,99742.27
2019-04-25T19:16:57.398Z,99734.78
2019-04-25T19:19:04.140Z,99735.36
2019-04-25T19:21:11.395Z,99734.59
2019-04-25T19:23:18.264Z,99738.23
2019-04-25T19:25:24.931Z,99739.63
2019-04-25T19:27:32.759Z,99739.27
2019-04-25T19:29:40.378Z,99733.08
2019-04-25T19:31:51.930Z,99738.09
2019-04-25T19:33:58.592Z,99739.12
2019-04-25T19:36:05.292Z,99739.20
2019-04-25T19:38:13.610Z,99736.68
2019-04-25T19:40:39.614Z,99736.32
2019-04-25T19:42:48.897Z,99735.55
2019-04-25T19:44:57.319Z,99736.01
2019-04-25T19:47:12.396Z,99738.31
2019-04-25T19:49:19.195Z,99741.46
2019-04-25T19:51:27.548Z,99739.30
2019-04-25T19:53:34.825Z,99733.56
2019-04-25T19:55:43.533Z,99731.34
2019-04-25T19:57:50.359Z,99736.77
2019-04-25T19:59:57.111Z,99734.59
2019-04-25T20:02:07.991Z,99734.19
2019-04-25T20:04:26.638Z,99735.16
2019-04-25T20:06:34.976Z,99729.06
2019-04-25T20:08:44.886Z,99730.91
2019-04-25T20:10:59.252Z,99736.33
2019-04-25T20:13:09.876Z,99731.94
2019-04-25T20:15:19.157Z,99730.59
2019-04-25T20:17:28.769Z,99725.34
2019-04-25T20:19:35.397Z,99731.71
2019-04-25T20:21:42.153Z,99728.72
2019-04-25T20:23:49.957Z,99731.05
2019-04-25T20:25:57.593Z,99732.11
2019-04-25T20:28:05.194Z,99733.03
2019-04-25T20:30:17.723Z,99725.14
2019-04-25T20:32:24.543Z,99723.89
2019-04-25T20:34:35.736Z,99727.60
2019-04-25T20:36:45.748Z,99726.07
2019-04-25T20:38:55.249Z,99724.41
2019-04-25T20:41:15.281Z,99727.68
2019-04-25T20:43:22.452Z,99732.30
2019-04-25T20:45:34.673Z,99726.26
2019-04-25T20:47:43.087Z,99724.72
2019-04-25T20:49:51.479Z,99728.55
2019-04-25T20:51:58.233Z,99724.75
2019-04-25T20:54:06.553Z,99727.23
2019-04-25T20:56:13.521Z,99717.16
2019-04-25T20:58:20.185Z,99726.32
2019-04-25T21:00:45.972Z,99721.16
2019-04-25T21:02:52.724Z,99721.83
2019-04-25T21:04:59.384Z,99722.00
2019-04-25T21:07:07.500Z,99722.62
2019-04-25T21:09:14.289Z,99723.66
2019-04-25T21:11:21.821Z,99721.16
2019-04-25T21:13:30.148Z,99720.90
2019-04-25T21:15:43.254Z,99724.95
2019-04-25T21:17:54.327Z,99719.73
2019-04-25T21:20:03.020Z,99724.66
2019-04-25T21:22:09.832Z,99725.77
2019-04-25T21:24:16.551Z,99728.11
2019-04-25T21:26:23.319Z,99722.45
2019-04-25T21:28:30.146Z,99725.25
2019-04-25T21:30:36.876Z,99724.03
2019-04-25T21:32:53.869Z,99725.06
2019-04-25T21:35:01.483Z,99724.27
2019-04-25T21:37:09.960Z,99729.72
2019-04-25T21:39:18.557Z,99725.38
2019-04-25T21:41:46.510Z,99722.39
2019-04-25T21:43:56.076Z,99724.72
2019-04-25T21:46:03.208Z,99721.70
2019-04-25T21:48:10.225Z,99719.14
2019-04-25T21:50:17.422Z,99719.71
2019-04-25T21:52:24.466Z,99711.34
2019-04-25T21:54:31.578Z,99713.21
2019-04-25T21:56:38.439Z,99715.95
2019-04-25T21:58:45.610Z,99715.99
2019-04-25T22:00:56.420Z,99714.31
2019-04-25T22:03:05.312Z,99713.05
2019-04-25T22:05:13.077Z,99713.57
2019-04-25T22:07:20.086Z,99708.30
2019-04-25T22:09:27.122Z,99712.38
2019-04-25T22:11:34.283Z,99709.78
2019-04-25T22:13:41.088Z,99712.59
2019-04-25T22:15:48.136Z,99716.67
2019-04-25T22:17:56.716Z,99711.36
2019-04-25T22:20:04.951Z,99710.13
2019-04-25T22:22:12.197Z,99707.14
2019-04-25T22:24:18.895Z,99713.36
2019-04-25T22:26:25.833Z,99709.00
2019-04-25T22:28:33.993Z,99707.25
2019-04-25T22:30:42.538Z,99713.08
2019-04-25T22:32:50.975Z,99714.51
2019-04-25T22:34:59.585Z,99713.73
2019-04-25T22:37:08.372Z,99716.92
2019-04-25T22:39:15.245Z,99718.36
2019-04-25T22:41:22.286Z,99715.79
2019-04-25T22:43:30.904Z,99724.74
2019-04-25T22:45:37.920Z,99718.98
2019-04-25T22:47:44.660Z,99717.29
2019-04-25T22:49:51.429Z,99715.05
2019-04-25T22:51:58.290Z,99717.25
2019-04-25T22:54:05.551Z,99717.81
2019-04-25T22:56:13.896Z,99718.72
2019-04-25T22:58:20.613Z,99706.83
2019-04-25T23:00:28.958Z,99713.20
2019-04-25T23:02:55.678Z,99711.58
2019-04-25T23:05:09.200Z,99716.55
2019-04-25T23:07:12.542Z,99713.06
2019-04-25T23:09:19.331Z,99711.37
2019-04-25T23:11:26.244Z,99712.80
2019-04-25T23:13:33.060Z,99710.25
2019-04-25T23:15:40.068Z,99704.58
2019-04-25T23:17:46.933Z,99709.06
2019-04-25T23:19:53.943Z,99705.97
2019-04-25T23:22:00.635Z,99709.55
2019-04-25T23:24:07.882Z,99702.09
2019-04-25T23:26:19.283Z,99708.42
2019-04-25T23:28:28.835Z,99704.42
2019-04-25T23:30:37.148Z,99704.02
2019-04-25T23:32:44.994Z,99702.78
2019-04-25T23:34:51.735Z,99706.92
2019-04-25T23:36:58.396Z,99710.55
2019-04-25T23:39:09.416Z,99703.09
2019-04-25T23:41:16.459Z,99700.97
2019-04-25T23:43:23.326Z,99704.11
2019-04-25T23:45:30.090Z,99703.31
2019-04-25T23:47:36.794Z,99702.00
2019-04-25T23:49:43.640Z,99696.34
2019-04-25T23:51:51.276Z,99699.50
2019-04-25T23:53:57.969Z,99701.37
2019-04-25T23:56:04.668Z,99697.96
2019-04-25T23:58:11.534Z,99699.77
